Ermua, Spain
Current Conditions -  °F | °C
As of 3:00 PM on Friday 24 Oct 2014 (Local Time) from LEBB Reporting Station
Clear Clear  
Wind Chill: 79°   Ceiling: Unl
Heat Index: 79°   Visibility: 6mi
Dew Point: 50°   Wind: 10mph
Humidity: 36%   Direction: 320°NW
Pressure: 30.06"   Gusts: NA
Location:  43.18°N, 2.5°W
Report Text: LEBB 241300Z 32009KT 290V350 9000 NSC 26/10 Q1018 NOSIG
Loading
Personal Weather Stations






























Interactive Weather Map
Tropical Storm Tracking
New forecast layout! Learn more

10-Day Weather Forecast

Advertisements
Track Severe Weather on mobile